createdAt,value
2023-04-07T00:01:42.893Z,64.17
2023-04-07T00:04:12.213Z,64.08
2023-04-07T00:06:43.679Z,63.97
2023-04-07T00:09:16.058Z,63.94
2023-04-07T00:11:53.076Z,63.80
2023-04-07T00:14:21.440Z,63.90
2023-04-07T00:16:49.601Z,63.90
2023-04-07T00:19:19.012Z,63.80
2023-04-07T00:21:47.933Z,63.90
2023-04-07T00:24:31.526Z,63.94
2023-04-07T00:27:03.896Z,63.84
2023-04-07T00:29:32.128Z,63.64
2023-04-07T00:32:04.293Z,63.50
2023-04-07T00:34:32.625Z,63.31
2023-04-07T00:37:02.189Z,63.13
2023-04-07T00:39:31.638Z,63.19
2023-04-07T00:42:00.014Z,62.93
2023-04-07T00:44:29.064Z,62.78
2023-04-07T00:46:57.754Z,62.57
2023-04-07T00:49:28.648Z,62.42
2023-04-07T00:52:00.302Z,62.21
2023-04-07T00:54:32.107Z,62.24
2023-04-07T00:57:01.949Z,62.30
2023-04-07T00:59:31.647Z,62.13
2023-04-07T01:02:11.128Z,61.83
2023-04-07T01:04:51.147Z,61.62
2023-04-07T01:07:25.132Z,61.33
2023-04-07T01:10:06.095Z,61.09
2023-04-07T01:13:03.282Z,61.08
2023-04-07T01:15:32.382Z,60.93
2023-04-07T01:18:22.486Z,60.83
2023-04-07T01:20:55.262Z,60.85
2023-04-07T01:23:39.955Z,60.82
2023-04-07T01:26:14.698Z,60.87
2023-04-07T01:28:58.711Z,60.91
2023-04-07T01:31:27.990Z,61.01
2023-04-07T01:33:58.008Z,60.98
2023-04-07T01:36:28.659Z,60.92
2023-04-07T01:38:56.962Z,60.84
2023-04-07T01:41:28.915Z,60.74
2023-04-07T01:43:57.684Z,60.75
2023-04-07T01:46:26.404Z,60.72
2023-04-07T01:48:54.695Z,60.61
2023-04-07T01:51:24.723Z,60.58
2023-04-07T01:53:53.952Z,60.55
2023-04-07T01:56:22.364Z,60.61
2023-04-07T01:58:53.388Z,60.61
2023-04-07T02:01:23.910Z,60.71
2023-04-07T02:04:17.512Z,60.77
2023-04-07T02:06:50.057Z,60.89
2023-04-07T02:09:21.804Z,60.94
2023-04-07T02:11:52.348Z,61.00
2023-04-07T02:14:24.647Z,61.21
2023-04-07T02:17:25.771Z,61.24
2023-04-07T02:19:54.794Z,61.41
2023-04-07T02:22:23.097Z,61.26
2023-04-07T02:24:52.408Z,61.45
2023-04-07T02:27:24.456Z,61.47
2023-04-07T02:29:54.650Z,61.50
2023-04-07T02:32:25.768Z,61.55
2023-04-07T02:34:54.536Z,61.65
2023-04-07T02:37:22.852Z,61.52
2023-04-07T02:39:52.016Z,61.49
2023-04-07T02:42:23.473Z,61.24
2023-04-07T02:44:52.184Z,61.23
2023-04-07T02:47:20.698Z,61.23
2023-04-07T02:49:51.076Z,61.30
2023-04-07T02:52:19.599Z,61.30
2023-04-07T02:54:48.185Z,61.24
2023-04-07T02:57:16.988Z,61.21
2023-04-07T02:59:45.676Z,61.07
2023-04-07T03:02:14.425Z,61.01
2023-04-07T03:04:44.416Z,61.05
2023-04-07T03:07:13.044Z,61.07
2023-04-07T03:09:45.270Z,61.15
2023-04-07T03:12:17.099Z,61.24
2023-04-07T03:14:45.706Z,61.34
2023-04-07T03:17:18.980Z,61.57
2023-04-07T03:19:49.031Z,61.64
2023-04-07T03:22:17.864Z,61.66
2023-04-07T03:24:49.946Z,61.70
2023-04-07T03:27:20.494Z,61.69
2023-04-07T03:29:52.543Z,61.71
2023-04-07T03:32:21.878Z,61.57
2023-04-07T03:34:50.581Z,61.33
2023-04-07T03:37:21.142Z,61.29
2023-04-07T03:39:51.624Z,61.15
2023-04-07T03:42:28.686Z,60.73
2023-04-07T03:45:04.744Z,60.61
2023-04-07T03:47:34.296Z,60.60
2023-04-07T03:50:04.810Z,60.53
2023-04-07T03:52:36.515Z,60.55
2023-04-07T03:55:19.763Z,60.60
2023-04-07T03:57:48.361Z,60.65
2023-04-07T04:00:22.668Z,60.58
2023-04-07T04:03:04.139Z,60.57
2023-04-07T04:05:32.858Z,60.62
2023-04-07T04:08:02.186Z,60.60
2023-04-07T04:10:31.693Z,60.66
2023-04-07T04:13:02.072Z,60.70
2023-04-07T04:15:31.670Z,60.82
2023-04-07T04:18:00.667Z,60.94
2023-04-07T04:20:34.925Z,60.90
2023-04-07T04:23:30.190Z,60.89
2023-04-07T04:26:13.458Z,60.76
2023-04-07T04:28:46.130Z,60.68
2023-04-07T04:32:01.525Z,60.63
2023-04-07T04:34:37.482Z,60.65
2023-04-07T04:37:06.240Z,60.65
2023-04-07T04:39:35.060Z,60.71
2023-04-07T04:42:06.013Z,60.66
2023-04-07T04:44:37.393Z,60.56
2023-04-07T04:47:15.031Z,60.54
2023-04-07T04:49:47.216Z,60.59
2023-04-07T04:52:15.708Z,60.46
2023-04-07T04:54:46.469Z,60.38
2023-04-07T04:57:15.087Z,60.28
2023-04-07T04:59:50.268Z,60.34
2023-04-07T05:02:18.774Z,60.24
2023-04-07T05:04:47.786Z,60.06
2023-04-07T05:07:23.872Z,59.61
2023-04-07T05:09:57.252Z,59.66
2023-04-07T05:12:26.330Z,59.57
2023-04-07T05:15:01.073Z,59.69
2023-04-07T05:17:30.019Z,59.63
2023-04-07T05:20:00.248Z,59.35
2023-04-07T05:22:41.634Z,59.44
2023-04-07T05:25:16.664Z,59.37
2023-04-07T05:27:45.968Z,59.37
2023-04-07T05:30:22.625Z,59.19
2023-04-07T05:32:53.361Z,59.14
2023-04-07T05:35:35.379Z,59.17
2023-04-07T05:38:06.176Z,59.20
2023-04-07T05:40:37.385Z,59.08
2023-04-07T05:43:08.126Z,58.79
2023-04-07T05:45:37.792Z,58.66
2023-04-07T05:48:07.849Z,58.52
2023-04-07T05:50:41.873Z,58.35
2023-04-07T05:53:13.294Z,58.28
2023-04-07T05:55:44.040Z,58.16
2023-04-07T05:58:16.932Z,58.08
2023-04-07T06:00:50.485Z,57.74
2023-04-07T06:03:20.203Z,57.54
2023-04-07T06:05:58.870Z,57.47
2023-04-07T06:08:31.185Z,57.35
2023-04-07T06:11:02.939Z,57.11
2023-04-07T06:13:31.712Z,56.92
2023-04-07T06:16:00.819Z,56.56
2023-04-07T06:18:32.834Z,56.46
2023-04-07T06:21:01.571Z,56.40
2023-04-07T06:23:36.162Z,55.95
2023-04-07T06:26:12.356Z,55.67
2023-04-07T06:28:41.123Z,55.45
2023-04-07T06:31:09.643Z,55.47
2023-04-07T06:33:39.824Z,55.25
2023-04-07T06:36:08.634Z,55.28
2023-04-07T06:38:37.635Z,55.19
2023-04-07T06:41:11.997Z,55.37
2023-04-07T06:43:41.311Z,55.16
2023-04-07T06:46:10.397Z,55.14
2023-04-07T06:48:38.824Z,54.61
2023-04-07T06:51:07.872Z,54.23
2023-04-07T06:53:36.875Z,54.29
2023-04-07T06:56:09.684Z,54.34
2023-04-07T06:58:39.085Z,54.72
2023-04-07T07:01:09.584Z,54.90
2023-04-07T07:03:40.229Z,54.73
2023-04-07T07:06:08.796Z,54.61
2023-04-07T07:08:37.208Z,54.72
2023-04-07T07:11:05.744Z,54.15
2023-04-07T07:13:36.624Z,53.61
2023-04-07T07:16:05.698Z,53.87
2023-04-07T07:18:37.831Z,53.87
2023-04-07T07:21:07.220Z,53.75
2023-04-07T07:23:36.845Z,53.43
2023-04-07T07:26:05.716Z,53.23
2023-04-07T07:28:34.265Z,53.25
2023-04-07T07:31:13.261Z,52.97
2023-04-07T07:33:44.395Z,52.59
2023-04-07T07:36:12.926Z,52.26
2023-04-07T07:38:41.758Z,52.08
2023-04-07T07:41:09.985Z,52.23
2023-04-07T07:43:40.078Z,52.27
2023-04-07T07:46:08.789Z,52.21
2023-04-07T07:48:41.828Z,51.71
2023-04-07T07:51:11.085Z,51.28
2023-04-07T07:53:39.542Z,50.76
2023-04-07T07:56:08.540Z,50.63
2023-04-07T07:58:37.804Z,50.79
2023-04-07T08:01:09.016Z,50.78
2023-04-07T08:03:40.304Z,50.70
2023-04-07T08:06:09.833Z,50.43
2023-04-07T08:08:39.318Z,50.28
2023-04-07T08:11:07.895Z,50.13
2023-04-07T08:13:39.082Z,49.81
2023-04-07T08:16:07.859Z,49.56
2023-04-07T08:18:36.522Z,49.26
2023-04-07T08:21:05.999Z,49.18
2023-04-07T08:23:34.379Z,49.56
2023-04-07T08:26:02.657Z,49.22
2023-04-07T08:28:36.934Z,48.93
2023-04-07T08:31:05.953Z,48.87
2023-04-07T08:33:34.304Z,48.85
2023-04-07T08:36:06.092Z,48.75
2023-04-07T08:38:34.934Z,48.87
2023-04-07T08:41:05.852Z,48.45
2023-04-07T08:43:36.100Z,47.96
2023-04-07T08:46:04.586Z,47.83
2023-04-07T08:48:34.387Z,48.00
2023-04-07T08:51:06.778Z,47.89
2023-04-07T08:53:44.648Z,47.61
2023-04-07T08:56:13.267Z,47.31
2023-04-07T08:58:41.763Z,47.37
2023-04-07T09:01:10.258Z,47.13
2023-04-07T09:03:39.685Z,46.84
2023-04-07T09:06:08.479Z,46.44
2023-04-07T09:08:39.171Z,46.28
2023-04-07T09:11:07.607Z,45.91
2023-04-07T09:13:38.437Z,45.88
2023-04-07T09:16:07.240Z,45.85
2023-04-07T09:18:55.519Z,45.65
2023-04-07T09:21:23.763Z,45.61
2023-04-07T09:23:53.031Z,45.25
2023-04-07T09:26:24.645Z,45.01
2023-04-07T09:29:01.210Z,44.77
2023-04-07T09:31:55.275Z,44.52
2023-04-07T09:34:35.240Z,43.62
2023-04-07T09:37:04.065Z,43.84
2023-04-07T09:39:33.296Z,44.10
2023-04-07T09:42:06.989Z,44.13
2023-04-07T09:44:41.343Z,44.30
2023-04-07T09:47:10.458Z,44.31
2023-04-07T09:49:53.974Z,44.28
2023-04-07T09:52:26.689Z,43.83
2023-04-07T09:54:56.962Z,43.64
2023-04-07T09:57:26.432Z,44.13
2023-04-07T09:59:59.725Z,44.36
2023-04-07T10:02:28.142Z,44.46
2023-04-07T10:04:56.414Z,44.17
2023-04-07T10:07:24.733Z,43.97
2023-04-07T10:10:10.594Z,43.34
2023-04-07T10:12:41.739Z,42.82
2023-04-07T10:15:16.119Z,42.71
2023-04-07T10:17:49.694Z,42.53
2023-04-07T10:20:19.066Z,42.49
2023-04-07T10:22:48.917Z,41.92
2023-04-07T10:25:19.767Z,41.86
2023-04-07T10:27:57.408Z,41.45
2023-04-07T10:30:29.563Z,41.64
2023-04-07T10:33:18.822Z,41.83
2023-04-07T10:36:30.132Z,41.87
2023-04-07T10:39:07.372Z,41.71
2023-04-07T10:41:41.591Z,41.57
2023-04-07T10:44:45.185Z,41.60
2023-04-07T10:47:14.484Z,41.52
2023-04-07T10:50:13.116Z,41.30
2023-04-07T10:52:42.714Z,40.85
2023-04-07T10:55:33.055Z,40.99
2023-04-07T10:58:31.270Z,41.08
2023-04-07T11:01:09.641Z,40.86
2023-04-07T11:03:39.432Z,40.72
2023-04-07T11:06:12.800Z,40.52
2023-04-07T11:08:45.176Z,40.70
2023-04-07T11:11:41.999Z,40.59
2023-04-07T11:14:20.888Z,40.45
2023-04-07T11:17:03.940Z,40.46
2023-04-07T11:19:53.295Z,40.23
2023-04-07T11:23:00.204Z,40.11
2023-04-07T11:25:29.039Z,39.70
2023-04-07T11:27:58.125Z,39.99
2023-04-07T11:30:33.226Z,39.32
2023-04-07T11:33:02.597Z,39.25
2023-04-07T11:35:31.720Z,39.54
2023-04-07T11:38:04.596Z,39.38
2023-04-07T11:40:34.883Z,39.09
2023-04-07T11:43:15.309Z,39.23
2023-04-07T11:45:43.988Z,39.58
2023-04-07T11:48:31.543Z,39.86
2023-04-07T11:51:00.507Z,39.25
2023-04-07T11:53:34.274Z,38.56
2023-04-07T11:56:10.446Z,38.75
2023-04-07T11:58:39.112Z,38.88
2023-04-07T12:01:09.330Z,38.13
2023-04-07T12:03:38.688Z,38.18
2023-04-07T12:06:08.661Z,38.14
2023-04-07T12:08:41.361Z,38.08
2023-04-07T12:11:10.408Z,38.99
2023-04-07T12:13:42.882Z,38.87
2023-04-07T12:16:11.893Z,38.89
2023-04-07T12:18:40.232Z,38.92
2023-04-07T12:21:11.709Z,39.03
2023-04-07T12:23:41.275Z,38.70
2023-04-07T12:26:12.071Z,38.73
2023-04-07T12:28:43.591Z,38.52
2023-04-07T12:31:12.709Z,38.38
2023-04-07T12:33:41.263Z,38.50
2023-04-07T12:36:09.745Z,38.06
2023-04-07T12:38:38.188Z,38.20
2023-04-07T12:41:07.066Z,38.54
2023-04-07T12:43:37.352Z,38.32
2023-04-07T12:46:06.296Z,38.12
2023-04-07T12:48:35.171Z,37.99
2023-04-07T12:51:03.765Z,38.14
2023-04-07T12:53:33.631Z,37.54
2023-04-07T12:56:02.089Z,37.34
2023-04-07T12:58:35.569Z,36.75
2023-04-07T13:01:04.346Z,37.13
2023-04-07T13:03:43.744Z,37.36
2023-04-07T13:06:19.362Z,36.36
2023-04-07T13:08:49.548Z,35.83
2023-04-07T13:11:17.712Z,36.10
2023-04-07T13:13:49.868Z,36.36
2023-04-07T13:16:18.678Z,35.96
2023-04-07T13:18:47.524Z,35.93
2023-04-07T13:23:57.857Z,36.07
2023-04-07T13:26:27.403Z,35.85
2023-04-07T13:28:55.900Z,35.37
2023-04-07T13:31:27.963Z,35.12
2023-04-07T13:33:57.034Z,35.42
2023-04-07T13:49:33.255Z,34.00
2023-04-07T13:52:03.225Z,34.08
2023-04-07T13:54:43.266Z,34.21
2023-04-07T13:57:11.723Z,33.99
2023-04-07T13:59:38.550Z,34.27
2023-04-07T14:02:05.492Z,34.40
2023-04-07T14:04:33.667Z,34.11
2023-04-07T14:07:10.677Z,33.92
2023-04-07T14:09:39.979Z,32.69
2023-04-07T14:12:06.926Z,32.19
2023-04-07T14:14:39.237Z,32.38
2023-04-07T14:17:06.662Z,32.46
2023-04-07T14:19:36.109Z,32.99
2023-04-07T14:22:05.417Z,33.83
2023-04-07T14:24:32.476Z,34.56
2023-04-07T14:27:01.304Z,34.53
2023-04-07T14:29:28.295Z,35.23
2023-04-07T14:31:57.077Z,35.84
2023-04-07T14:34:24.200Z,35.73
2023-04-07T14:36:55.908Z,36.09
2023-04-07T14:39:23.618Z,36.46
2023-04-07T14:41:51.866Z,36.84
2023-04-07T14:44:19.418Z,36.98
2023-04-07T14:46:46.474Z,37.27
2023-04-07T14:49:14.306Z,37.37
2023-04-07T14:51:41.333Z,37.69
2023-04-07T14:54:08.512Z,37.59
2023-04-07T14:56:35.410Z,37.52
2023-04-07T14:59:04.570Z,37.25
2023-04-07T15:01:31.834Z,37.08
2023-04-07T15:04:00.388Z,37.47
2023-04-07T15:06:27.599Z,37.75
2023-04-07T15:08:54.722Z,37.53
2023-04-07T15:11:21.872Z,37.31
2023-04-07T15:13:49.431Z,37.37
2023-04-07T15:16:16.634Z,37.59
2023-04-07T15:18:46.725Z,37.66
2023-04-07T15:21:14.403Z,37.72
2023-04-07T15:23:41.420Z,37.12
2023-04-07T15:26:08.567Z,37.06
2023-04-07T15:28:41.806Z,36.83
2023-04-07T15:31:09.655Z,37.03
2023-04-07T15:33:39.964Z,37.45
2023-04-07T15:36:08.045Z,37.32
2023-04-07T15:38:35.164Z,37.38
2023-04-07T15:41:02.115Z,37.48
2023-04-07T15:43:29.185Z,37.29
2023-04-07T15:45:56.082Z,36.32
2023-04-07T15:48:23.677Z,36.02
2023-04-07T15:50:54.562Z,36.09
2023-04-07T15:53:25.682Z,36.32
2023-04-07T15:55:52.536Z,36.53
2023-04-07T15:58:20.160Z,36.39
2023-04-07T16:00:47.173Z,36.61
2023-04-07T16:03:16.626Z,36.84
2023-04-07T16:05:47.872Z,37.35
2023-04-07T16:08:15.081Z,38.15
2023-04-07T16:10:44.263Z,39.03
2023-04-07T16:13:15.037Z,39.82
2023-04-07T16:15:58.360Z,40.41
2023-04-07T16:18:27.221Z,41.35
2023-04-07T16:20:54.135Z,41.88
2023-04-07T16:23:28.003Z,42.41
2023-04-07T16:25:56.141Z,42.98
2023-04-07T16:28:22.982Z,43.37
2023-04-07T16:30:49.977Z,43.70
2023-04-07T16:33:25.859Z,43.99
2023-04-07T16:35:53.032Z,44.18
2023-04-07T16:38:26.848Z,44.43
2023-04-07T16:41:03.392Z,44.76
2023-04-07T16:43:36.309Z,45.04
2023-04-07T16:46:05.461Z,45.49
2023-04-07T16:48:32.544Z,45.86
2023-04-07T16:51:00.787Z,46.28
2023-04-07T16:53:27.981Z,46.54
2023-04-07T16:55:55.824Z,46.60
2023-04-07T16:58:23.838Z,46.73
2023-04-07T17:00:50.792Z,46.91
2023-04-07T17:03:23.267Z,47.01
2023-04-07T17:05:50.610Z,47.21
2023-04-07T17:08:18.036Z,47.43
2023-04-07T17:10:45.570Z,47.67
2023-04-07T17:13:12.559Z,47.99
2023-04-07T17:15:39.532Z,48.14
2023-04-07T17:18:08.773Z,48.46
2023-04-07T17:20:36.480Z,48.70
2023-04-07T17:23:05.280Z,49.02
2023-04-07T17:25:33.876Z,49.31
2023-04-07T17:28:00.802Z,49.81
2023-04-07T17:30:29.386Z,50.00
2023-04-07T17:32:56.585Z,50.22
2023-04-07T17:35:24.708Z,50.40
2023-04-07T17:37:56.749Z,50.62
2023-04-07T17:40:23.570Z,50.97
2023-04-07T17:42:50.335Z,51.52
2023-04-07T17:45:17.409Z,51.91
2023-04-07T17:47:45.839Z,52.19
2023-04-07T17:50:15.906Z,52.38
2023-04-07T17:52:44.783Z,52.60
2023-04-07T17:55:12.078Z,52.80
2023-04-07T17:57:41.106Z,53.14
2023-04-07T18:00:08.605Z,53.31
2023-04-07T18:02:44.290Z,53.42
2023-04-07T18:05:12.030Z,53.61
2023-04-07T18:07:39.199Z,53.66
2023-04-07T18:10:07.697Z,53.86
2023-04-07T18:12:35.023Z,54.06
2023-04-07T18:15:02.150Z,54.36
2023-04-07T18:17:30.071Z,54.34
2023-04-07T18:19:57.810Z,54.55
2023-04-07T18:22:26.291Z,54.63
2023-04-07T18:24:53.346Z,54.48
2023-04-07T18:27:23.628Z,54.42
2023-04-07T18:29:51.942Z,54.40
2023-04-07T18:32:18.862Z,54.42
2023-04-07T18:34:47.349Z,54.31
2023-04-07T18:37:16.562Z,54.24
2023-04-07T18:39:44.838Z,54.21
2023-04-07T18:42:12.636Z,54.30
2023-04-07T18:44:39.918Z,54.40
2023-04-07T18:47:08.070Z,54.31
2023-04-07T18:49:34.947Z,54.47
2023-04-07T18:52:01.829Z,54.52
2023-04-07T18:54:34.874Z,54.80
2023-04-07T18:57:02.378Z,54.84
2023-04-07T18:59:29.945Z,55.01
2023-04-07T19:02:00.739Z,55.04
2023-04-07T19:04:28.067Z,55.05
2023-04-07T19:06:57.019Z,55.29
2023-04-07T19:09:24.067Z,55.30
2023-04-07T19:11:52.213Z,55.40
2023-04-07T19:14:20.171Z,55.61
2023-04-07T19:16:48.187Z,55.64
2023-04-07T19:19:16.860Z,55.76
2023-04-07T19:21:49.859Z,55.75
2023-04-07T19:24:17.263Z,55.79
2023-04-07T19:27:04.677Z,55.85
2023-04-07T19:29:54.009Z,55.87
2023-04-07T19:32:37.304Z,55.94
2023-04-07T19:35:06.792Z,55.96
2023-04-07T19:37:34.958Z,56.10
2023-04-07T19:40:05.472Z,56.20
2023-04-07T19:42:35.197Z,56.24
2023-04-07T19:45:06.722Z,56.39
2023-04-07T19:47:38.784Z,56.46
2023-04-07T19:50:07.321Z,56.59
2023-04-07T19:52:34.267Z,56.73
2023-04-07T19:55:03.324Z,56.93
2023-04-07T19:57:33.658Z,57.04
2023-04-07T20:00:18.385Z,57.26
2023-04-07T20:03:08.826Z,57.38
2023-04-07T20:05:38.029Z,57.48
2023-04-07T20:08:08.391Z,57.60
2023-04-07T20:10:36.769Z,57.69
2023-04-07T20:13:12.344Z,57.60
2023-04-07T20:15:43.753Z,57.57
2023-04-07T20:18:23.825Z,57.68
2023-04-07T20:21:09.703Z,57.74
2023-04-07T20:24:10.970Z,57.82
2023-04-07T20:26:54.293Z,57.94
2023-04-07T20:29:54.432Z,58.02
2023-04-07T20:32:40.094Z,58.17
2023-04-07T20:35:09.275Z,58.27
2023-04-07T20:37:36.157Z,58.37
2023-04-07T20:40:06.527Z,58.46
2023-04-07T20:42:34.074Z,58.52
2023-04-07T20:45:03.344Z,58.69
2023-04-07T20:47:30.816Z,58.68
2023-04-07T20:49:58.331Z,58.84
2023-04-07T20:52:28.782Z,58.94
2023-04-07T20:54:56.816Z,59.04
2023-04-07T20:57:23.719Z,59.06
2023-04-07T20:59:51.703Z,59.26
2023-04-07T21:02:18.618Z,59.37
2023-04-07T21:04:45.690Z,59.53
2023-04-07T21:07:12.701Z,59.56
2023-04-07T21:09:39.597Z,59.67
2023-04-07T21:12:06.810Z,59.62
2023-04-07T21:14:39.650Z,59.61
2023-04-07T21:17:06.752Z,59.61
2023-04-07T21:19:33.670Z,59.57
2023-04-07T21:22:07.187Z,59.56
2023-04-07T21:24:35.881Z,59.55
2023-04-07T21:27:03.860Z,59.68
2023-04-07T21:29:33.769Z,59.73
2023-04-07T21:32:01.339Z,59.90
2023-04-07T21:34:30.103Z,59.86
2023-04-07T21:36:57.867Z,59.84
2023-04-07T21:39:27.553Z,59.85
2023-04-07T21:41:56.876Z,60.01
2023-04-07T21:44:25.814Z,60.07
2023-04-07T21:46:53.163Z,60.17
2023-04-07T21:49:22.956Z,60.21
2023-04-07T21:51:50.074Z,60.39
2023-04-07T21:54:18.214Z,60.55
2023-04-07T21:56:48.398Z,60.57
2023-04-07T21:59:16.886Z,60.70
2023-04-07T22:01:46.341Z,60.66
2023-04-07T22:04:13.372Z,60.88
2023-04-07T22:06:42.934Z,60.89
2023-04-07T22:09:10.581Z,60.90
2023-04-07T22:11:37.818Z,60.94
2023-04-07T22:14:05.480Z,60.94
2023-04-07T22:16:32.522Z,60.97
2023-04-07T22:19:00.744Z,61.05
2023-04-07T22:21:27.891Z,61.05
2023-04-07T22:23:54.869Z,61.06
2023-04-07T22:26:22.264Z,61.14
2023-04-07T22:28:50.034Z,61.18
2023-04-07T22:31:17.096Z,61.22
2023-04-07T22:33:45.404Z,61.29
2023-04-07T22:36:12.399Z,61.36
2023-04-07T22:38:43.337Z,61.39
2023-04-07T22:41:10.392Z,61.48
2023-04-07T22:43:37.238Z,61.61
2023-04-07T22:46:04.171Z,61.67
2023-04-07T22:48:31.074Z,61.63
2023-04-07T22:51:00.055Z,61.71
2023-04-07T22:53:27.952Z,61.88
2023-04-07T22:55:56.137Z,61.87
2023-04-07T22:58:23.040Z,61.95
2023-04-07T23:00:50.056Z,62.06
2023-04-07T23:03:19.412Z,62.02
2023-04-07T23:05:47.636Z,61.88
2023-04-07T23:08:14.470Z,62.10
2023-04-07T23:10:42.787Z,62.31
2023-04-07T23:13:10.289Z,62.50
2023-04-07T23:15:37.182Z,62.57
2023-04-07T23:18:08.082Z,62.55
2023-04-07T23:20:35.524Z,62.54
2023-04-07T23:23:03.053Z,62.57
2023-04-07T23:25:30.253Z,62.51
2023-04-07T23:27:57.310Z,62.51
2023-04-07T23:30:24.120Z,62.59
2023-04-07T23:32:51.562Z,62.53
2023-04-07T23:35:18.359Z,62.54
2023-04-07T23:37:46.354Z,62.52
2023-04-07T23:40:13.580Z,62.34
2023-04-07T23:42:42.617Z,62.22
2023-04-07T23:45:10.688Z,62.13
2023-04-07T23:47:38.007Z,62.03
2023-04-07T23:50:07.211Z,62.02
2023-04-07T23:52:34.225Z,61.91
2023-04-07T23:55:03.780Z,61.89
2023-04-07T23:57:30.907Z,61.93
2023-04-07T23:59:59.436Z,61.85
